sensor_id;sensor_type;location;lat;lon;timestamp;temperature;humidity
38995;DHT22;24769;18.712;99.000;2023-04-05T00:02:15;21.50;99.90
38995;DHT22;24769;18.712;99.000;2023-04-05T00:04:44;21.60;99.90
38995;DHT22;24769;18.712;99.000;2023-04-05T00:07:16;21.60;99.90
38995;DHT22;24769;18.712;99.000;2023-04-05T00:09:44;21.80;99.90
38995;DHT22;24769;18.712;99.000;2023-04-05T00:12:11;22.00;99.90
38995;DHT22;24769;18.712;99.000;2023-04-05T00:14:37;22.00;99.90
38995;DHT22;24769;18.712;99.000;2023-04-05T00:17:04;22.00;99.90
38995;DHT22;24769;18.712;99.000;2023-04-05T00:19:31;22.00;99.90
38995;DHT22;24769;18.712;99.000;2023-04-05T00:22:01;22.40;99.90
38995;DHT22;24769;18.712;99.000;2023-04-05T00:24:28;22.40;99.90
38995;DHT22;24769;18.712;99.000;2023-04-05T00:26:56;22.60;99.90
38995;DHT22;24769;18.712;99.000;2023-04-05T00:29:23;22.60;99.90
38995;DHT22;24769;18.712;99.000;2023-04-05T00:31:50;22.80;99.90
38995;DHT22;24769;18.712;99.000;2023-04-05T00:34:16;22.80;89.70
38995;DHT22;24769;18.712;99.000;2023-04-05T00:36:43;22.90;89.40
38995;DHT22;24769;18.712;99.000;2023-04-05T00:39:10;23.10;89.60
38995;DHT22;24769;18.712;99.000;2023-04-05T00:41:37;23.30;92.20
38995;DHT22;24769;18.712;99.000;2023-04-05T00:44:05;23.40;94.80
38995;DHT22;24769;18.712;99.000;2023-04-05T00:46:35;23.50;89.50
38995;DHT22;24769;18.712;99.000;2023-04-05T00:49:03;23.50;76.10
38995;DHT22;24769;18.712;99.000;2023-04-05T00:51:31;23.80;83.80
38995;DHT22;24769;18.712;99.000;2023-04-05T00:54:00;23.80;79.90
38995;DHT22;24769;18.712;99.000;2023-04-05T00:56:28;24.00;80.40
38995;DHT22;24769;18.712;99.000;2023-04-05T00:58:55;24.10;79.00
38995;DHT22;24769;18.712;99.000;2023-04-05T01:01:24;24.20;78.70
38995;DHT22;24769;18.712;99.000;2023-04-05T01:04:00;24.30;77.70
38995;DHT22;24769;18.712;99.000;2023-04-05T01:07:16;24.50;72.30
38995;DHT22;24769;18.712;99.000;2023-04-05T01:12:06;24.70;63.80
38995;DHT22;24769;18.712;99.000;2023-04-05T01:14:51;24.90;62.10
38995;DHT22;24769;18.712;99.000;2023-04-05T01:17:20;25.10;65.20
38995;DHT22;24769;18.712;99.000;2023-04-05T01:19:57;25.10;65.90
38995;DHT22;24769;18.712;99.000;2023-04-05T01:25:44;25.30;58.50
38995;DHT22;24769;18.712;99.000;2023-04-05T01:33:58;25.80;56.20
38995;DHT22;24769;18.712;99.000;2023-04-05T01:36:35;25.80;58.00
38995;DHT22;24769;18.712;99.000;2023-04-05T01:39:07;26.10;56.90
38995;DHT22;24769;18.712;99.000;2023-04-05T01:41:34;26.10;55.30
38995;DHT22;24769;18.712;99.000;2023-04-05T01:44:01;26.10;53.30
38995;DHT22;24769;18.712;99.000;2023-04-05T01:46:28;26.10;49.70
38995;DHT22;24769;18.712;99.000;2023-04-05T01:48:54;26.20;51.10
38995;DHT22;24769;18.712;99.000;2023-04-05T01:51:21;26.40;51.50
38995;DHT22;24769;18.712;99.000;2023-04-05T01:53:48;26.80;46.10
38995;DHT22;24769;18.712;99.000;2023-04-05T01:56:15;26.70;43.30
38995;DHT22;24769;18.712;99.000;2023-04-05T01:58:42;27.10;43.70
38995;DHT22;24769;18.712;99.000;2023-04-05T02:01:09;27.20;40.10
38995;DHT22;24769;18.712;99.000;2023-04-05T02:03:35;27.40;41.70
38995;DHT22;24769;18.712;99.000;2023-04-05T02:06:02;27.50;37.60
38995;DHT22;24769;18.712;99.000;2023-04-05T02:08:29;27.60;38.00
38995;DHT22;24769;18.712;99.000;2023-04-05T02:10:56;27.30;36.00
38995;DHT22;24769;18.712;99.000;2023-04-05T02:13:22;27.40;37.00
38995;DHT22;24769;18.712;99.000;2023-04-05T02:15:51;27.60;35.90
38995;DHT22;24769;18.712;99.000;2023-04-05T02:18:17;27.90;35.40
38995;DHT22;24769;18.712;99.000;2023-04-05T02:20:50;27.90;34.60
38995;DHT22;24769;18.712;99.000;2023-04-05T02:23:19;28.00;34.60
38995;DHT22;24769;18.712;99.000;2023-04-05T02:25:46;28.20;34.70
38995;DHT22;24769;18.712;99.000;2023-04-05T02:28:13;28.20;35.00
38995;DHT22;24769;18.712;99.000;2023-04-05T02:30:40;28.40;33.60
38995;DHT22;24769;18.712;99.000;2023-04-05T02:33:07;28.20;30.20
38995;DHT22;24769;18.712;99.000;2023-04-05T02:35:35;28.30;31.40
38995;DHT22;24769;18.712;99.000;2023-04-05T02:38:03;28.70;31.40
38995;DHT22;24769;18.712;99.000;2023-04-05T02:40:30;28.80;27.70
38995;DHT22;24769;18.712;99.000;2023-04-05T02:42:57;29.00;27.10
38995;DHT22;24769;18.712;99.000;2023-04-05T02:45:24;29.10;28.20
38995;DHT22;24769;18.712;99.000;2023-04-05T02:47:53;29.30;28.60
38995;DHT22;24769;18.712;99.000;2023-04-05T02:50:20;29.10;27.20
38995;DHT22;24769;18.712;99.000;2023-04-05T02:52:49;29.00;27.50
38995;DHT22;24769;18.712;99.000;2023-04-05T02:55:16;29.30;27.90
38995;DHT22;24769;18.712;99.000;2023-04-05T02:57:43;29.40;26.00
38995;DHT22;24769;18.712;99.000;2023-04-05T03:00:10;29.20;28.70
38995;DHT22;24769;18.712;99.000;2023-04-05T03:02:38;29.40;29.20
38995;DHT22;24769;18.712;99.000;2023-04-05T03:05:06;29.60;26.40
38995;DHT22;24769;18.712;99.000;2023-04-05T03:07:33;29.80;26.10
38995;DHT22;24769;18.712;99.000;2023-04-05T03:10:00;29.90;24.90
38995;DHT22;24769;18.712;99.000;2023-04-05T03:12:28;30.00;26.20
38995;DHT22;24769;18.712;99.000;2023-04-05T03:14:54;30.40;23.90
38995;DHT22;24769;18.712;99.000;2023-04-05T03:18:46;30.40;21.40
38995;DHT22;24769;18.712;99.000;2023-04-05T03:21:13;30.60;21.80
38995;DHT22;24769;18.712;99.000;2023-04-05T03:23:43;30.70;20.30
38995;DHT22;24769;18.712;99.000;2023-04-05T03:26:13;30.90;20.30
38995;DHT22;24769;18.712;99.000;2023-04-05T03:28:40;31.00;21.50
38995;DHT22;24769;18.712;99.000;2023-04-05T03:31:10;30.90;19.10
38995;DHT22;24769;18.712;99.000;2023-04-05T03:33:37;30.80;19.20
38995;DHT22;24769;18.712;99.000;2023-04-05T03:36:04;31.00;20.00
38995;DHT22;24769;18.712;99.000;2023-04-05T03:38:31;31.20;19.80
38995;DHT22;24769;18.712;99.000;2023-04-05T03:40:58;31.40;20.50
38995;DHT22;24769;18.712;99.000;2023-04-05T03:43:25;31.20;18.50
38995;DHT22;24769;18.712;99.000;2023-04-05T03:45:52;31.30;16.30
38995;DHT22;24769;18.712;99.000;2023-04-05T03:48:19;31.30;15.70
38995;DHT22;24769;18.712;99.000;2023-04-05T03:50:46;31.40;16.80
38995;DHT22;24769;18.712;99.000;2023-04-05T03:53:13;31.50;15.90
38995;DHT22;24769;18.712;99.000;2023-04-05T03:55:44;31.60;14.50
38995;DHT22;24769;18.712;99.000;2023-04-05T03:58:15;31.70;14.70
38995;DHT22;24769;18.712;99.000;2023-04-05T04:00:42;31.80;15.20
38995;DHT22;24769;18.712;99.000;2023-04-05T04:03:10;31.90;14.60
38995;DHT22;24769;18.712;99.000;2023-04-05T04:05:37;32.10;13.60
38995;DHT22;24769;18.712;99.000;2023-04-05T04:08:05;32.00;13.70
38995;DHT22;24769;18.712;99.000;2023-04-05T04:10:32;32.00;13.50
38995;DHT22;24769;18.712;99.000;2023-04-05T04:12:59;32.20;13.80
38995;DHT22;24769;18.712;99.000;2023-04-05T04:15:26;32.20;12.10
38995;DHT22;24769;18.712;99.000;2023-04-05T04:17:53;32.30;12.90
38995;DHT22;24769;18.712;99.000;2023-04-05T04:20:19;32.60;12.90
38995;DHT22;24769;18.712;99.000;2023-04-05T04:22:46;32.60;13.50
38995;DHT22;24769;18.712;99.000;2023-04-05T04:25:15;32.70;11.30
38995;DHT22;24769;18.712;99.000;2023-04-05T04:27:44;32.90;11.20
38995;DHT22;24769;18.712;99.000;2023-04-05T04:30:16;33.00;11.50
38995;DHT22;24769;18.712;99.000;2023-04-05T04:32:46;32.90;10.50
38995;DHT22;24769;18.712;99.000;2023-04-05T04:35:22;33.20;11.00
38995;DHT22;24769;18.712;99.000;2023-04-05T04:37:57;33.10;10.60
38995;DHT22;24769;18.712;99.000;2023-04-05T04:40:31;33.30;10.10
38995;DHT22;24769;18.712;99.000;2023-04-05T04:43:09;33.50;8.60
38995;DHT22;24769;18.712;99.000;2023-04-05T04:45:43;33.10;9.50
38995;DHT22;24769;18.712;99.000;2023-04-05T04:48:13;33.40;10.20
38995;DHT22;24769;18.712;99.000;2023-04-05T04:50:45;33.60;8.70
38995;DHT22;24769;18.712;99.000;2023-04-05T04:53:13;33.80;8.90
38995;DHT22;24769;18.712;99.000;2023-04-05T04:55:42;34.10;9.00
38995;DHT22;24769;18.712;99.000;2023-04-05T04:58:10;33.90;7.60
38995;DHT22;24769;18.712;99.000;2023-04-05T05:00:41;34.20;7.60
38995;DHT22;24769;18.712;99.000;2023-04-05T05:03:09;33.90;6.40
38995;DHT22;24769;18.712;99.000;2023-04-05T05:05:48;33.70;6.60
38995;DHT22;24769;18.712;99.000;2023-04-05T05:08:15;34.00;7.90
38995;DHT22;24769;18.712;99.000;2023-04-05T05:10:43;34.20;4.80
38995;DHT22;24769;18.712;99.000;2023-04-05T05:13:10;34.30;5.60
38995;DHT22;24769;18.712;99.000;2023-04-05T05:15:39;34.30;5.40
38995;DHT22;24769;18.712;99.000;2023-04-05T05:18:08;34.50;5.10
38995;DHT22;24769;18.712;99.000;2023-04-05T05:20:35;34.60;4.60
38995;DHT22;24769;18.712;99.000;2023-04-05T05:23:02;34.90;3.90
38995;DHT22;24769;18.712;99.000;2023-04-05T05:25:30;34.70;3.10
38995;DHT22;24769;18.712;99.000;2023-04-05T05:27:57;34.90;3.30
38995;DHT22;24769;18.712;99.000;2023-04-05T05:30:24;34.90;2.10
38995;DHT22;24769;18.712;99.000;2023-04-05T05:32:52;34.60;1.90
38995;DHT22;24769;18.712;99.000;2023-04-05T05:35:19;34.60;1.00
38995;DHT22;24769;18.712;99.000;2023-04-05T05:37:46;34.80;1.00
38995;DHT22;24769;18.712;99.000;2023-04-05T05:40:12;35.10;1.00
38995;DHT22;24769;18.712;99.000;2023-04-05T05:42:41;34.90;1.00
38995;DHT22;24769;18.712;99.000;2023-04-05T05:45:08;34.80;1.20
38995;DHT22;24769;18.712;99.000;2023-04-05T05:47:35;34.70;1.00
38995;DHT22;24769;18.712;99.000;2023-04-05T05:50:02;34.90;1.00
38995;DHT22;24769;18.712;99.000;2023-04-05T05:52:30;34.90;1.00
38995;DHT22;24769;18.712;99.000;2023-04-05T05:54:56;34.80;1.00
38995;DHT22;24769;18.712;99.000;2023-04-05T05:57:23;35.00;1.00
38995;DHT22;24769;18.712;99.000;2023-04-05T05:59:50;35.20;1.00
38995;DHT22;24769;18.712;99.000;2023-04-05T06:02:18;35.30;1.00
38995;DHT22;24769;18.712;99.000;2023-04-05T06:04:44;35.50;1.00
38995;DHT22;24769;18.712;99.000;2023-04-05T06:07:11;35.30;1.00
38995;DHT22;24769;18.712;99.000;2023-04-05T06:09:38;35.60;1.00
38995;DHT22;24769;18.712;99.000;2023-04-05T06:12:05;35.60;1.00
38995;DHT22;24769;18.712;99.000;2023-04-05T06:14:32;35.80;1.00
38995;DHT22;24769;18.712;99.000;2023-04-05T06:16:59;35.90;1.00
38995;DHT22;24769;18.712;99.000;2023-04-05T06:19:26;35.90;1.00
38995;DHT22;24769;18.712;99.000;2023-04-05T06:21:53;35.90;1.00
38995;DHT22;24769;18.712;99.000;2023-04-05T06:24:20;35.70;1.00
38995;DHT22;24769;18.712;99.000;2023-04-05T06:26:47;35.80;1.00
38995;DHT22;24769;18.712;99.000;2023-04-05T06:29:13;35.80;1.00
38995;DHT22;24769;18.712;99.000;2023-04-05T06:31:40;36.10;1.40
38995;DHT22;24769;18.712;99.000;2023-04-05T06:34:07;36.10;1.00
38995;DHT22;24769;18.712;99.000;2023-04-05T06:36:34;36.10;1.00
38995;DHT22;24769;18.712;99.000;2023-04-05T06:39:01;36.10;1.00
38995;DHT22;24769;18.712;99.000;2023-04-05T06:41:28;35.50;1.00
38995;DHT22;24769;18.712;99.000;2023-04-05T06:43:55;35.40;1.00
38995;DHT22;24769;18.712;99.000;2023-04-05T06:46:22;35.60;1.00
38995;DHT22;24769;18.712;99.000;2023-04-05T06:48:51;35.90;1.00
38995;DHT22;24769;18.712;99.000;2023-04-05T06:51:19;35.50;1.00
38995;DHT22;24769;18.712;99.000;2023-04-05T06:53:46;35.80;1.00
38995;DHT22;24769;18.712;99.000;2023-04-05T06:56:13;35.80;1.00
38995;DHT22;24769;18.712;99.000;2023-04-05T06:58:39;35.60;1.00
38995;DHT22;24769;18.712;99.000;2023-04-05T07:01:06;35.60;1.00
38995;DHT22;24769;18.712;99.000;2023-04-05T07:03:33;35.90;1.00
38995;DHT22;24769;18.712;99.000;2023-04-05T07:06:00;36.00;1.00
38995;DHT22;24769;18.712;99.000;2023-04-05T07:08:30;36.10;1.00
38995;DHT22;24769;18.712;99.000;2023-04-05T07:10:57;36.10;1.00
38995;DHT22;24769;18.712;99.000;2023-04-05T07:13:24;36.00;1.00
38995;DHT22;24769;18.712;99.000;2023-04-05T07:15:51;36.00;1.00
38995;DHT22;24769;18.712;99.000;2023-04-05T07:18:24;36.10;1.00
38995;DHT22;24769;18.712;99.000;2023-04-05T07:20:51;36.10;1.20
38995;DHT22;24769;18.712;99.000;2023-04-05T07:23:19;36.20;1.00
38995;DHT22;24769;18.712;99.000;2023-04-05T07:25:46;36.20;1.00
38995;DHT22;24769;18.712;99.000;2023-04-05T07:28:13;36.30;1.00
38995;DHT22;24769;18.712;99.000;2023-04-05T07:30:39;36.40;1.00
38995;DHT22;24769;18.712;99.000;2023-04-05T07:33:06;36.40;1.00
38995;DHT22;24769;18.712;99.000;2023-04-05T07:35:33;36.00;1.00
38995;DHT22;24769;18.712;99.000;2023-04-05T07:38:00;36.00;1.00
38995;DHT22;24769;18.712;99.000;2023-04-05T07:40:26;36.20;1.00
38995;DHT22;24769;18.712;99.000;2023-04-05T07:42:53;36.20;1.00
38995;DHT22;24769;18.712;99.000;2023-04-05T07:45:20;36.10;1.00
38995;DHT22;24769;18.712;99.000;2023-04-05T07:47:47;36.10;1.00
38995;DHT22;24769;18.712;99.000;2023-04-05T07:50:13;36.00;1.00
38995;DHT22;24769;18.712;99.000;2023-04-05T07:52:41;35.80;1.00
38995;DHT22;24769;18.712;99.000;2023-04-05T07:55:11;35.80;1.00
38995;DHT22;24769;18.712;99.000;2023-04-05T07:57:37;36.00;1.00
38995;DHT22;24769;18.712;99.000;2023-04-05T08:00:05;35.90;1.00
38995;DHT22;24769;18.712;99.000;2023-04-05T08:02:38;35.90;1.00
38995;DHT22;24769;18.712;99.000;2023-04-05T08:05:05;36.00;1.00
38995;DHT22;24769;18.712;99.000;2023-04-05T08:07:32;36.00;1.00
38995;DHT22;24769;18.712;99.000;2023-04-05T08:09:59;36.00;1.00
38995;DHT22;24769;18.712;99.000;2023-04-05T08:12:26;35.70;1.00
38995;DHT22;24769;18.712;99.000;2023-04-05T08:14:53;35.80;1.00
38995;DHT22;24769;18.712;99.000;2023-04-05T08:17:20;35.90;1.00
38995;DHT22;24769;18.712;99.000;2023-04-05T08:19:47;35.90;1.00
38995;DHT22;24769;18.712;99.000;2023-04-05T08:22:14;36.00;1.00
38995;DHT22;24769;18.712;99.000;2023-04-05T08:24:42;36.00;1.00
38995;DHT22;24769;18.712;99.000;2023-04-05T08:27:09;35.90;1.00
38995;DHT22;24769;18.712;99.000;2023-04-05T08:29:35;35.90;1.00
38995;DHT22;24769;18.712;99.000;2023-04-05T08:32:02;36.00;1.00
38995;DHT22;24769;18.712;99.000;2023-04-05T08:34:29;35.90;1.00
38995;DHT22;24769;18.712;99.000;2023-04-05T08:36:59;35.90;1.00
38995;DHT22;24769;18.712;99.000;2023-04-05T08:39:26;36.00;1.00
38995;DHT22;24769;18.712;99.000;2023-04-05T08:42:09;36.00;1.00
38995;DHT22;24769;18.712;99.000;2023-04-05T08:44:37;35.90;1.00
38995;DHT22;24769;18.712;99.000;2023-04-05T08:47:05;35.80;1.00
38995;DHT22;24769;18.712;99.000;2023-04-05T08:49:33;35.80;1.00
38995;DHT22;24769;18.712;99.000;2023-04-05T08:52:00;35.70;1.00
38995;DHT22;24769;18.712;99.000;2023-04-05T08:54:27;35.60;1.00
38995;DHT22;24769;18.712;99.000;2023-04-05T08:56:56;35.50;1.00
38995;DHT22;24769;18.712;99.000;2023-04-05T08:59:25;35.50;1.00
38995;DHT22;24769;18.712;99.000;2023-04-05T09:01:53;35.40;1.00
38995;DHT22;24769;18.712;99.000;2023-04-05T09:04:24;35.40;1.00
38995;DHT22;24769;18.712;99.000;2023-04-05T09:06:55;35.30;1.00
38995;DHT22;24769;18.712;99.000;2023-04-05T09:09:24;35.30;1.00
38995;DHT22;24769;18.712;99.000;2023-04-05T09:11:51;35.20;1.00
38995;DHT22;24769;18.712;99.000;2023-04-05T09:14:18;35.10;1.00
38995;DHT22;24769;18.712;99.000;2023-04-05T09:16:46;35.10;1.00
38995;DHT22;24769;18.712;99.000;2023-04-05T09:19:12;35.00;1.00
38995;DHT22;24769;18.712;99.000;2023-04-05T09:24:35;35.10;1.00
38995;DHT22;24769;18.712;99.000;2023-04-05T09:27:18;35.00;1.00
38995;DHT22;24769;18.712;99.000;2023-04-05T09:29:48;34.90;1.00
38995;DHT22;24769;18.712;99.000;2023-04-05T09:32:16;34.80;1.00
38995;DHT22;24769;18.712;99.000;2023-04-05T09:34:45;34.70;1.00
38995;DHT22;24769;18.712;99.000;2023-04-05T09:37:16;34.60;1.00
38995;DHT22;24769;18.712;99.000;2023-04-05T09:39:45;34.70;1.00
38995;DHT22;24769;18.712;99.000;2023-04-05T09:42:14;34.60;1.00
38995;DHT22;24769;18.712;99.000;2023-04-05T09:47:21;34.50;1.00
38995;DHT22;24769;18.712;99.000;2023-04-05T09:49:47;34.50;1.00
38995;DHT22;24769;18.712;99.000;2023-04-05T09:52:19;34.20;1.00
38995;DHT22;24769;18.712;99.000;2023-04-05T09:54:46;34.30;1.00
38995;DHT22;24769;18.712;99.000;2023-04-05T09:57:15;34.30;1.00
38995;DHT22;24769;18.712;99.000;2023-04-05T09:59:44;34.10;1.00
38995;DHT22;24769;18.712;99.000;2023-04-05T10:02:11;34.00;1.00
38995;DHT22;24769;18.712;99.000;2023-04-05T10:04:39;33.90;1.00
38995;DHT22;24769;18.712;99.000;2023-04-05T10:07:11;33.70;1.00
38995;DHT22;24769;18.712;99.000;2023-04-05T10:09:44;33.60;1.00
38995;DHT22;24769;18.712;99.000;2023-04-05T10:12:20;33.60;1.00
38995;DHT22;24769;18.712;99.000;2023-04-05T10:14:49;33.40;1.70
38995;DHT22;24769;18.712;99.000;2023-04-05T10:17:36;33.40;1.60
38995;DHT22;24769;18.712;99.000;2023-04-05T10:20:16;33.30;1.90
38995;DHT22;24769;18.712;99.000;2023-04-05T10:28:32;33.00;2.80
38995;DHT22;24769;18.712;99.000;2023-04-05T10:33:59;32.70;4.20
38995;DHT22;24769;18.712;99.000;2023-04-05T10:36:57;32.50;5.70
38995;DHT22;24769;18.712;99.000;2023-04-05T10:39:46;32.40;6.00
38995;DHT22;24769;18.712;99.000;2023-04-05T10:42:20;32.30;7.50
38995;DHT22;24769;18.712;99.000;2023-04-05T10:45:07;32.30;8.30
38995;DHT22;24769;18.712;99.000;2023-04-05T10:47:43;32.20;10.10
38995;DHT22;24769;18.712;99.000;2023-04-05T10:50:20;31.90;10.40
38995;DHT22;24769;18.712;99.000;2023-04-05T10:52:47;31.70;10.40
38995;DHT22;24769;18.712;99.000;2023-04-05T10:55:16;31.50;11.10
38995;DHT22;24769;18.712;99.000;2023-04-05T10:57:45;31.40;9.60
38995;DHT22;24769;18.712;99.000;2023-04-05T11:00:14;31.20;9.50
38995;DHT22;24769;18.712;99.000;2023-04-05T11:02:41;31.10;9.40
38995;DHT22;24769;18.712;99.000;2023-04-05T11:05:32;31.00;9.90
38995;DHT22;24769;18.712;99.000;2023-04-05T11:08:03;30.90;10.10
38995;DHT22;24769;18.712;99.000;2023-04-05T11:10:32;30.80;11.30
38995;DHT22;24769;18.712;99.000;2023-04-05T11:20:50;30.10;15.20
38995;DHT22;24769;18.712;99.000;2023-04-05T11:23:19;30.00;14.20
38995;DHT22;24769;18.712;99.000;2023-04-05T11:25:56;29.90;13.20
38995;DHT22;24769;18.712;99.000;2023-04-05T11:28:37;29.80;13.40
38995;DHT22;24769;18.712;99.000;2023-04-05T11:31:18;29.70;14.50
38995;DHT22;24769;18.712;99.000;2023-04-05T11:36:38;29.40;16.30
38995;DHT22;24769;18.712;99.000;2023-04-05T11:47:06;29.00;16.60
38995;DHT22;24769;18.712;99.000;2023-04-05T11:49:33;28.90;16.70
38995;DHT22;24769;18.712;99.000;2023-04-05T11:52:13;28.80;17.20
38995;DHT22;24769;18.712;99.000;2023-04-05T11:54:40;28.70;17.20
38995;DHT22;24769;18.712;99.000;2023-04-05T11:57:20;28.70;18.30
38995;DHT22;24769;18.712;99.000;2023-04-05T11:59:50;28.60;17.70
38995;DHT22;24769;18.712;99.000;2023-04-05T12:02:17;28.50;17.80
38995;DHT22;24769;18.712;99.000;2023-04-05T12:04:47;28.50;16.70
38995;DHT22;24769;18.712;99.000;2023-04-05T12:07:19;28.40;16.20
38995;DHT22;24769;18.712;99.000;2023-04-05T12:10:12;28.40;16.70
38995;DHT22;24769;18.712;99.000;2023-04-05T12:12:43;28.30;17.40
38995;DHT22;24769;18.712;99.000;2023-04-05T12:15:11;28.20;17.50
38995;DHT22;24769;18.712;99.000;2023-04-05T12:17:43;28.10;17.70
38995;DHT22;24769;18.712;99.000;2023-04-05T12:20:12;28.10;17.70
38995;DHT22;24769;18.712;99.000;2023-04-05T12:22:41;28.00;18.00
38995;DHT22;24769;18.712;99.000;2023-04-05T12:25:08;27.90;17.80
38995;DHT22;24769;18.712;99.000;2023-04-05T12:27:37;27.80;18.30
38995;DHT22;24769;18.712;99.000;2023-04-05T12:30:17;27.80;18.00
38995;DHT22;24769;18.712;99.000;2023-04-05T12:32:52;27.70;18.30
38995;DHT22;24769;18.712;99.000;2023-04-05T12:35:21;27.60;19.10
38995;DHT22;24769;18.712;99.000;2023-04-05T12:37:52;27.70;20.00
38995;DHT22;24769;18.712;99.000;2023-04-05T12:40:21;27.60;20.90
38995;DHT22;24769;18.712;99.000;2023-04-05T12:42:48;27.50;21.40
38995;DHT22;24769;18.712;99.000;2023-04-05T12:45:15;27.50;23.10
38995;DHT22;24769;18.712;99.000;2023-04-05T12:47:56;27.40;24.40
38995;DHT22;24769;18.712;99.000;2023-04-05T12:50:28;27.40;24.20
38995;DHT22;24769;18.712;99.000;2023-04-05T12:53:00;27.30;25.00
38995;DHT22;24769;18.712;99.000;2023-04-05T12:55:30;27.20;25.20
38995;DHT22;24769;18.712;99.000;2023-04-05T12:58:01;27.20;26.30
38995;DHT22;24769;18.712;99.000;2023-04-05T13:00:29;27.10;28.30
38995;DHT22;24769;18.712;99.000;2023-04-05T13:02:58;27.10;26.40
38995;DHT22;24769;18.712;99.000;2023-04-05T13:05:27;27.00;29.30
38995;DHT22;24769;18.712;99.000;2023-04-05T13:07:54;27.00;29.80
38995;DHT22;24769;18.712;99.000;2023-04-05T13:10:22;26.90;28.90
38995;DHT22;24769;18.712;99.000;2023-04-05T13:12:49;26.90;28.60
38995;DHT22;24769;18.712;99.000;2023-04-05T13:15:16;26.80;29.00
38995;DHT22;24769;18.712;99.000;2023-04-05T13:17:44;26.60;29.40
38995;DHT22;24769;18.712;99.000;2023-04-05T13:20:15;27.10;28.70
38995;DHT22;24769;18.712;99.000;2023-04-05T13:22:43;27.20;28.60
38995;DHT22;24769;18.712;99.000;2023-04-05T13:25:10;27.20;28.40
38995;DHT22;24769;18.712;99.000;2023-04-05T13:27:37;27.00;30.90
38995;DHT22;24769;18.712;99.000;2023-04-05T13:30:04;26.80;30.90
38995;DHT22;24769;18.712;99.000;2023-04-05T13:32:32;26.60;31.30
38995;DHT22;24769;18.712;99.000;2023-04-05T13:34:59;26.70;31.90
38995;DHT22;24769;18.712;99.000;2023-04-05T13:37:26;26.80;30.30
38995;DHT22;24769;18.712;99.000;2023-04-05T13:39:53;26.80;32.40
38995;DHT22;24769;18.712;99.000;2023-04-05T13:42:19;26.70;32.40
38995;DHT22;24769;18.712;99.000;2023-04-05T13:44:46;26.40;34.10
38995;DHT22;24769;18.712;99.000;2023-04-05T13:47:13;26.30;35.60
38995;DHT22;24769;18.712;99.000;2023-04-05T13:49:41;26.40;35.60
38995;DHT22;24769;18.712;99.000;2023-04-05T13:52:08;26.40;36.10
38995;DHT22;24769;18.712;99.000;2023-04-05T13:54:35;26.40;37.20
38995;DHT22;24769;18.712;99.000;2023-04-05T13:57:02;26.30;39.00
38995;DHT22;24769;18.712;99.000;2023-04-05T13:59:29;26.40;36.20
38995;DHT22;24769;18.712;99.000;2023-04-05T14:01:56;26.50;35.40
38995;DHT22;24769;18.712;99.000;2023-04-05T14:04:23;26.60;36.60
38995;DHT22;24769;18.712;99.000;2023-04-05T14:06:50;26.70;36.40
38995;DHT22;24769;18.712;99.000;2023-04-05T14:09:16;26.60;39.90
38995;DHT22;24769;18.712;99.000;2023-04-05T14:11:43;26.40;40.70
38995;DHT22;24769;18.712;99.000;2023-04-05T14:14:10;26.30;43.60
38995;DHT22;24769;18.712;99.000;2023-04-05T14:16:37;26.20;41.80
38995;DHT22;24769;18.712;99.000;2023-04-05T14:19:04;26.20;41.70
38995;DHT22;24769;18.712;99.000;2023-04-05T14:21:30;26.30;41.80
38995;DHT22;24769;18.712;99.000;2023-04-05T14:23:58;26.20;41.60
38995;DHT22;24769;18.712;99.000;2023-04-05T14:26:26;26.20;42.30
38995;DHT22;24769;18.712;99.000;2023-04-05T14:28:53;26.20;41.70
38995;DHT22;24769;18.712;99.000;2023-04-05T14:31:19;26.20;41.30
38995;DHT22;24769;18.712;99.000;2023-04-05T14:33:46;26.20;39.40
38995;DHT22;24769;18.712;99.000;2023-04-05T14:36:13;26.20;39.80
38995;DHT22;24769;18.712;99.000;2023-04-05T14:38:40;26.20;41.50
38995;DHT22;24769;18.712;99.000;2023-04-05T14:41:06;26.00;42.10
38995;DHT22;24769;18.712;99.000;2023-04-05T14:43:33;26.00;43.10
38995;DHT22;24769;18.712;99.000;2023-04-05T14:46:00;25.90;43.80
38995;DHT22;24769;18.712;99.000;2023-04-05T14:48:30;25.80;44.20
38995;DHT22;24769;18.712;99.000;2023-04-05T14:51:04;25.90;43.70
38995;DHT22;24769;18.712;99.000;2023-04-05T14:53:30;25.80;42.50
38995;DHT22;24769;18.712;99.000;2023-04-05T14:55:57;25.70;43.30
38995;DHT22;24769;18.712;99.000;2023-04-05T14:58:24;25.60;45.50
38995;DHT22;24769;18.712;99.000;2023-04-05T15:00:51;25.50;43.60
38995;DHT22;24769;18.712;99.000;2023-04-05T15:03:17;25.60;43.50
38995;DHT22;24769;18.712;99.000;2023-04-05T15:05:46;25.50;43.30
38995;DHT22;24769;18.712;99.000;2023-04-05T15:08:14;25.40;45.70
38995;DHT22;24769;18.712;99.000;2023-04-05T15:10:41;25.40;46.80
38995;DHT22;24769;18.712;99.000;2023-04-05T15:13:08;25.40;46.50
38995;DHT22;24769;18.712;99.000;2023-04-05T15:15:37;25.50;45.60
38995;DHT22;24769;18.712;99.000;2023-04-05T15:18:04;25.50;45.00
38995;DHT22;24769;18.712;99.000;2023-04-05T15:20:33;25.50;45.10
38995;DHT22;24769;18.712;99.000;2023-04-05T15:23:00;25.40;46.50
38995;DHT22;24769;18.712;99.000;2023-04-05T15:25:27;25.30;47.10
38995;DHT22;24769;18.712;99.000;2023-04-05T15:27:54;25.40;46.40
38995;DHT22;24769;18.712;99.000;2023-04-05T15:30:23;25.50;45.90
38995;DHT22;24769;18.712;99.000;2023-04-05T15:32:52;25.50;47.00
38995;DHT22;24769;18.712;99.000;2023-04-05T15:35:19;25.40;47.90
38995;DHT22;24769;18.712;99.000;2023-04-05T15:37:46;25.30;49.60
38995;DHT22;24769;18.712;99.000;2023-04-05T15:40:12;25.20;49.70
38995;DHT22;24769;18.712;99.000;2023-04-05T15:42:39;25.10;52.20
38995;DHT22;24769;18.712;99.000;2023-04-05T15:45:06;25.10;50.00
38995;DHT22;24769;18.712;99.000;2023-04-05T15:47:33;25.30;48.20
38995;DHT22;24769;18.712;99.000;2023-04-05T15:50:00;25.50;45.80
38995;DHT22;24769;18.712;99.000;2023-04-05T15:52:27;25.70;45.70
38995;DHT22;24769;18.712;99.000;2023-04-05T15:54:54;25.70;45.50
38995;DHT22;24769;18.712;99.000;2023-04-05T15:57:21;25.60;45.60
38995;DHT22;24769;18.712;99.000;2023-04-05T15:59:49;25.50;47.20
38995;DHT22;24769;18.712;99.000;2023-04-05T16:02:17;25.50;46.20
38995;DHT22;24769;18.712;99.000;2023-04-05T16:04:44;25.60;46.20
38995;DHT22;24769;18.712;99.000;2023-04-05T16:07:11;25.60;45.20
38995;DHT22;24769;18.712;99.000;2023-04-05T16:09:38;25.60;44.90
38995;DHT22;24769;18.712;99.000;2023-04-05T16:12:04;25.60;45.80
38995;DHT22;24769;18.712;99.000;2023-04-05T16:14:32;25.60;46.50
38995;DHT22;24769;18.712;99.000;2023-04-05T16:16:59;25.50;46.20
38995;DHT22;24769;18.712;99.000;2023-04-05T16:19:25;25.50;48.20